Time;durP1;ratioP1;P1;durP2;ratioP2;P2;SDS_P1;SDS_P2;PMS_P1;PMS_P2;Temp;Humidity;BMP_temperature;BMP_pressure;BME280_temperature;BME280_humidity;BME280_pressure;Samples;Min_cycle;Max_cycle;Signal;HPM_P1;HPM_P2
2022/08/21 00:00:48;;;;;;;5.03;2.25;;;;;;;15.86;100.00;100689.94;6184062;28;20053;-87
2022/08/21 00:03:50;;;;;;;2.67;1.80;;;;;;;15.81;100.00;100684.34;6207910;28;20044;-87
2022/08/21 00:06:53;;;;;;;3.05;1.88;;;;;;;15.75;100.00;100679.72;6206544;28;20051;-87
2022/08/21 00:09:55;;;;;;;4.22;1.90;;;;;;;15.69;100.00;100681.97;6225023;28;20041;-87
2022/08/21 00:12:57;;;;;;;4.55;1.92;;;;;;;15.66;100.00;100677.00;6215378;28;20630;-87
2022/08/21 00:16:00;;;;;;;6.07;1.98;;;;;;;15.63;100.00;100664.28;6219482;28;20053;-87
2022/08/21 00:19:03;;;;;;;3.58;1.50;;;;;;;15.64;100.00;100659.88;6201593;28;20125;-87
2022/08/21 00:22:05;;;;;;;4.43;1.83;;;;;;;15.60;100.00;100668.97;6203855;28;20043;-87
2022/08/21 00:25:07;;;;;;;4.55;1.70;;;;;;;15.58;100.00;100669.13;6209220;28;20046;-87
2022/08/21 00:28:10;;;;;;;3.00;1.85;;;;;;;15.51;100.00;100676.72;6212059;28;20050;-87
2022/08/21 00:31:12;;;;;;;2.85;1.75;;;;;;;15.48;100.00;100671.81;6204180;28;20077;-87
2022/08/21 00:34:14;;;;;;;5.78;2.00;;;;;;;15.49;100.00;100676.03;6217637;28;20045;-87
2022/08/21 00:37:16;;;;;;;7.00;1.98;;;;;;;15.43;100.00;100675.84;6222871;28;20049;-87
2022/08/21 00:40:25;;;;;;;5.18;1.85;;;;;;;15.37;100.00;100682.44;6223741;28;20033;-87
2022/08/21 00:43:31;;;;;;;2.80;1.88;;;;;;;15.31;100.00;100677.84;6211353;28;20037;-86
2022/08/21 00:46:33;;;;;;;7.03;2.20;;;;;;;15.24;100.00;100676.78;6215401;28;20049;-87
2022/08/21 00:49:34;;;;;;;3.75;2.13;;;;;;;15.23;100.00;100675.16;6217493;28;20427;-86
2022/08/21 00:52:38;;;;;;;6.57;2.65;;;;;;;15.18;100.00;100678.22;6215984;28;20569;-87
2022/08/21 00:55:40;;;;;;;5.97;2.20;;;;;;;15.13;100.00;100680.44;6222777;28;20050;-87
2022/08/21 00:58:45;;;;;;;4.85;2.22;;;;;;;15.08;100.00;100677.47;6213305;28;20057;-87
2022/08/21 01:01:50;;;;;;;5.00;2.45;;;;;;;15.06;100.00;100674.97;6208938;28;20043;-87
2022/08/21 01:04:52;;;;;;;4.88;2.75;;;;;;;15.06;100.00;100679.38;6208874;28;20295;-86
2022/08/21 01:07:56;;;;;;;4.53;2.30;;;;;;;15.03;100.00;100677.03;6211124;28;20056;-87
2022/08/21 01:10:59;;;;;;;3.83;2.25;;;;;;;15.01;100.00;100684.22;6219591;28;20041;-86
2022/08/21 01:14:03;;;;;;;5.97;2.13;;;;;;;15.02;100.00;100685.84;6212740;28;20060;-87
2022/08/21 01:17:06;;;;;;;4.75;2.38;;;;;;;14.99;100.00;100681.75;6187088;28;20511;-87
2022/08/21 01:20:11;;;;;;;6.38;2.30;;;;;;;14.99;100.00;100686.16;6199858;28;20106;-86
2022/08/21 01:23:12;;;;;;;2.67;2.13;;;;;;;14.99;100.00;100683.53;6213076;28;20054;-87
2022/08/21 01:26:17;;;;;;;5.05;2.10;;;;;;;14.97;100.00;100691.50;6192728;28;20094;-87
2022/08/21 01:29:45;;;;;;;4.53;1.90;;;;;;;14.97;100.00;100694.09;6222010;28;20049;-87
2022/08/21 01:32:47;;;;;;;5.10;2.35;;;;;;;14.96;100.00;100696.88;6221803;28;20457;-87
2022/08/21 01:35:49;;;;;;;3.92;2.13;;;;;;;14.96;100.00;100691.66;6196142;28;20557;-87
2022/08/21 01:38:51;;;;;;;4.03;2.22;;;;;;;14.97;100.00;100690.69;6197356;28;20049;-87
2022/08/21 01:41:53;;;;;;;4.38;2.35;;;;;;;14.99;100.00;100692.19;6216484;28;20436;-87
2022/08/21 01:44:56;;;;;;;3.67;2.25;;;;;;;14.98;100.00;100689.69;6221053;28;20049;-87
2022/08/21 01:47:58;;;;;;;6.65;2.08;;;;;;;14.99;100.00;100681.75;6231103;28;20124;-87
2022/08/21 01:50:59;;;;;;;4.80;2.03;;;;;;;14.96;100.00;100676.03;6202136;28;20042;-86
2022/08/21 01:54:01;;;;;;;4.35;2.05;;;;;;;14.96;100.00;100676.84;6192977;28;20591;-87
2022/08/21 01:57:04;;;;;;;4.60;2.35;;;;;;;14.93;100.00;100671.06;6225853;28;20048;-87
2022/08/21 02:00:10;;;;;;;5.20;2.20;;;;;;;14.92;100.00;100670.25;6224775;28;20085;-87
2022/08/21 02:03:12;;;;;;;3.97;3.20;;;;;;;14.92;100.00;100657.22;6218774;28;20057;-87
2022/08/21 02:06:27;;;;;;;5.97;3.03;;;;;;;14.96;100.00;100661.19;6214486;28;20126;-87
2022/08/21 02:09:28;;;;;;;4.70;2.35;;;;;;;14.98;100.00;100664.47;6209231;28;20052;-87
2022/08/21 02:12:31;;;;;;;4.60;2.30;;;;;;;15.01;100.00;100655.53;6220359;28;20566;-87
2022/08/21 02:15:33;;;;;;;2.58;2.05;;;;;;;14.99;100.00;100667.91;6207994;28;20050;-87
2022/08/21 02:18:35;;;;;;;3.58;2.00;;;;;;;14.95;100.00;100656.94;6205153;28;20516;-87
2022/08/21 02:21:37;;;;;;;5.25;1.95;;;;;;;14.90;100.00;100653.13;6215369;28;20515;-87
2022/08/21 02:24:39;;;;;;;3.17;1.85;;;;;;;14.85;100.00;100646.56;6214235;28;20629;-87
2022/08/21 02:27:56;;;;;;;4.30;1.95;;;;;;;14.84;100.00;100649.31;6189533;28;20050;-87
2022/08/21 02:30:59;;;;;;;3.90;2.10;;;;;;;14.86;100.00;100639.56;6199398;28;20042;-87
2022/08/21 02:34:00;;;;;;;3.80;1.92;;;;;;;14.85;100.00;100640.53;6227657;28;20070;-87
2022/08/21 02:37:02;;;;;;;2.17;1.85;;;;;;;14.83;100.00;100638.09;6204178;28;20094;-87
2022/08/21 02:40:04;;;;;;;5.47;2.28;;;;;;;14.81;100.00;100642.63;6190737;28;20042;-87
2022/08/21 02:43:07;;;;;;;4.50;2.25;;;;;;;14.78;100.00;100640.31;6192292;28;20072;-87
2022/08/21 02:46:13;;;;;;;3.30;1.90;;;;;;;14.71;100.00;100641.84;6199903;28;20050;-87
2022/08/21 02:49:15;;;;;;;3.22;1.85;;;;;;;14.64;100.00;100643.41;6223495;28;20641;-87
2022/08/21 02:52:17;;;;;;;2.95;2.10;;;;;;;14.59;100.00;100643.00;6205503;28;20038;-87
2022/08/21 02:55:20;;;;;;;5.00;2.35;;;;;;;14.57;100.00;100640.53;6210745;28;20826;-87
2022/08/21 02:58:25;;;;;;;3.30;1.92;;;;;;;14.59;100.00;100635.19;6208564;28;20042;-87
2022/08/21 03:01:27;;;;;;;4.13;2.00;;;;;;;14.53;100.00;100631.34;6211458;28;20778;-87
2022/08/21 03:04:29;;;;;;;3.05;2.33;;;;;;;14.52;100.00;100624.50;6204099;28;20034;-87
2022/08/21 03:07:30;;;;;;;4.07;2.03;;;;;;;14.50;100.00;100625.59;6213594;28;20511;-87
2022/08/21 03:10:33;;;;;;;3.67;2.08;;;;;;;14.49;100.00;100626.56;6200776;28;20046;-87
2022/08/21 03:13:35;;;;;;;2.95;2.10;;;;;;;14.52;100.00;100623.69;6218107;28;20539;-87
2022/08/21 03:16:37;;;;;;;3.92;1.80;;;;;;;14.53;100.00;100625.31;6201446;28;20053;-87
2022/08/21 03:19:39;;;;;;;2.92;2.20;;;;;;;14.52;100.00;100624.50;6231617;28;20038;-87
2022/08/21 03:22:41;;;;;;;5.25;2.40;;;;;;;14.50;100.00;100626.41;6208591;28;20768;-87
2022/08/21 03:25:50;;;;;;;4.32;2.50;;;;;;;14.53;100.00;100635.72;6200357;28;20078;-87
2022/08/21 03:28:57;;;;;;;3.60;2.55;;;;;;;14.57;100.00;100630.13;6212228;28;20049;-87
2022/08/21 03:31:59;;;;;;;4.95;2.53;;;;;;;14.64;100.00;100625.16;6222642;28;20108;-87
2022/08/21 03:35:01;;;;;;;5.32;2.83;;;;;;;14.70;100.00;100619.34;6214110;28;20046;-87
2022/08/21 03:38:03;;;;;;;3.50;2.63;;;;;;;14.73;100.00;100628.66;6217650;28;20046;-87
2022/08/21 03:41:07;;;;;;;5.30;2.65;;;;;;;14.78;100.00;100623.84;6208513;28;20040;-87
2022/08/21 03:44:15;;;;;;;4.63;2.65;;;;;;;14.82;100.00;100631.22;6207097;28;20046;-87
2022/08/21 03:47:17;;;;;;;5.88;3.20;;;;;;;14.90;100.00;100630.47;6211266;28;20056;-87
2022/08/21 03:50:18;;;;;;;5.68;3.20;;;;;;;14.98;100.00;100629.75;6207373;28;20943;-87
2022/08/21 03:53:21;;;;;;;5.90;3.55;;;;;;;15.10;100.00;100630.38;6197518;28;20042;-87
2022/08/21 03:56:23;;;;;;;6.15;3.30;;;;;;;15.15;100.00;100633.34;6209346;28;20034;-87
2022/08/21 03:59:25;;;;;;;6.00;2.92;;;;;;;15.15;100.00;100634.16;6208081;28;20038;-87
2022/08/21 04:02:27;;;;;;;5.38;2.90;;;;;;;15.17;100.00;100634.84;6194306;28;20045;-87
2022/08/21 04:05:29;;;;;;;5.97;2.70;;;;;;;15.22;100.00;100627.38;6201455;28;20804;-87
2022/08/21 04:08:31;;;;;;;4.35;2.63;;;;;;;15.27;100.00;100630.38;6207837;28;20133;-87
2022/08/21 04:11:34;;;;;;;7.28;3.03;;;;;;;15.29;100.00;100631.03;6213889;28;20060;-87
2022/08/21 04:14:37;;;;;;;5.78;2.88;;;;;;;15.34;100.00;100646.25;6229239;28;20048;-87
2022/08/21 04:17:39;;;;;;;7.13;3.40;;;;;;;15.40;100.00;100637.84;6219285;28;20448;-87
2022/08/21 04:20:42;;;;;;;4.15;2.72;;;;;;;15.42;100.00;100641.09;6216416;28;20038;-87
2022/08/21 04:23:50;;;;;;;5.20;2.80;;;;;;;15.46;100.00;100636.41;6197052;28;20053;-87
2022/08/21 04:26:52;;;;;;;6.05;2.88;;;;;;;15.49;100.00;100636.09;6205257;28;21018;-87
2022/08/21 04:29:53;;;;;;;6.60;2.97;;;;;;;15.50;100.00;100643.78;6196572;28;20382;-87
2022/08/21 04:32:57;;;;;;;5.70;2.72;;;;;;;15.55;100.00;100640.69;6213271;28;20069;-87
2022/08/21 04:35:59;;;;;;;5.20;2.60;;;;;;;15.55;100.00;100643.31;6214241;28;20047;-87
2022/08/21 04:39:01;;;;;;;4.45;2.70;;;;;;;15.61;100.00;100647.94;6214445;28;20419;-87
2022/08/21 04:42:07;;;;;;;5.78;2.47;;;;;;;15.62;100.00;100654.78;6221990;28;20056;-87
2022/08/21 04:45:09;;;;;;;5.13;2.55;;;;;;;15.61;100.00;100647.13;6204985;28;20044;-87
2022/08/21 04:48:13;;;;;;;5.28;2.20;;;;;;;15.61;100.00;100640.13;6207888;28;20258;-87
2022/08/21 04:51:22;;;;;;;3.50;2.08;;;;;;;15.66;100.00;100645.69;6204182;28;20109;-87
2022/08/21 04:54:24;;;;;;;5.18;2.33;;;;;;;15.68;100.00;100651.59;6214221;28;20037;-87
2022/08/21 04:57:26;;;;;;;5.03;2.45;;;;;;;15.71;100.00;100647.88;6207965;28;20060;-87
2022/08/21 05:00:51;;;;;;;4.95;2.40;;;;;;;15.71;100.00;100664.38;6204658;28;20043;-88
2022/08/21 05:03:58;;;;;;;4.35;2.75;;;;;;;15.74;100.00;100658.03;6212536;28;20045;-87
2022/08/21 05:07:05;;;;;;;3.67;2.58;;;;;;;15.76;100.00;100656.09;6197613;28;20046;-87
2022/08/21 05:10:08;;;;;;;4.60;2.42;;;;;;;15.82;100.00;100660.69;6202500;28;20049;-88
2022/08/21 05:13:12;;;;;;;3.75;2.47;;;;;;;15.90;100.00;100657.34;6202948;28;20046;-87
2022/08/21 05:16:15;;;;;;;4.80;3.03;;;;;;;15.95;100.00;100657.69;6213092;28;20041;-87
2022/08/21 05:19:37;;;;;;;4.43;2.53;;;;;;;16.06;100.00;100659.22;6210247;28;20042;-87
2022/08/21 05:22:40;;;;;;;5.10;2.17;;;;;;;16.13;100.00;100655.84;6210077;28;20034;-87
2022/08/21 05:25:43;;;;;;;4.90;2.50;;;;;;;16.25;100.00;100663.44;6211659;28;20548;-87
2022/08/21 05:28:46;;;;;;;4.72;2.25;;;;;;;16.36;100.00;100665.75;6218964;28;20064;-87
2022/08/21 05:31:48;;;;;;;3.55;2.30;;;;;;;16.45;100.00;100666.63;6218452;28;20617;-87
2022/08/21 05:34:50;;;;;;;4.85;2.35;;;;;;;16.51;100.00;100671.22;6214308;28;20045;-87
2022/08/21 05:37:52;;;;;;;4.15;2.33;;;;;;;16.53;100.00;100662.25;6228320;28;20048;-87
2022/08/21 05:40:54;;;;;;;6.32;2.22;;;;;;;16.55;100.00;100665.53;6226760;28;20053;-87
2022/08/21 05:43:56;;;;;;;3.13;2.30;;;;;;;16.57;100.00;100670.59;6215822;28;20042;-87
2022/08/21 05:47:11;;;;;;;4.00;2.25;;;;;;;16.57;100.00;100665.34;6201614;28;20838;-87
2022/08/21 05:50:13;;;;;;;7.50;2.47;;;;;;;16.63;100.00;100667.38;6209631;28;20034;-87
2022/08/21 05:53:17;;;;;;;5.00;2.50;;;;;;;16.69;100.00;100679.78;6196163;28;20512;-87
2022/08/21 05:56:19;;;;;;;3.72;2.30;;;;;;;16.82;100.00;100686.41;6211515;28;20449;-87
2022/08/21 05:59:21;;;;;;;5.00;2.53;;;;;;;16.86;100.00;100691.16;6227153;28;20038;-87
2022/08/21 06:02:23;;;;;;;4.78;3.03;;;;;;;16.98;100.00;100692.50;6203627;28;20050;-87
2022/08/21 06:05:26;;;;;;;6.25;3.15;;;;;;;17.07;100.00;100695.16;6205942;28;20431;-87
2022/08/21 06:08:38;;;;;;;4.70;2.95;;;;;;;17.10;100.00;100694.84;6199740;28;20050;-87
2022/08/21 06:11:39;;;;;;;4.78;2.78;;;;;;;17.09;100.00;100696.66;6226748;28;20053;-87
2022/08/21 06:14:41;;;;;;;5.70;2.92;;;;;;;17.11;100.00;100699.09;6223422;28;20444;-87
2022/08/21 06:17:43;;;;;;;5.15;2.83;;;;;;;17.04;100.00;100698.09;6223238;28;20228;-87
2022/08/21 06:20:45;;;;;;;5.18;3.17;;;;;;;16.96;100.00;100693.66;6215081;28;20041;-87
2022/08/21 06:23:47;;;;;;;4.60;3.33;;;;;;;16.90;100.00;100702.97;6210949;28;20049;-87
2022/08/21 06:26:49;;;;;;;5.15;2.92;;;;;;;16.85;100.00;100699.19;6191098;28;20041;-87
2022/08/21 06:29:51;;;;;;;5.20;3.17;;;;;;;16.78;100.00;100696.38;6210176;28;20346;-87
2022/08/21 06:32:53;;;;;;;7.35;4.00;;;;;;;16.71;100.00;100695.31;6214433;28;20297;-87
2022/08/21 06:35:54;;;;;;;6.18;2.88;;;;;;;16.66;100.00;100694.97;6214938;28;20039;-87
2022/08/21 06:38:56;;;;;;;5.30;3.00;;;;;;;16.61;100.00;100692.03;6200805;28;20649;-87
2022/08/21 06:41:59;;;;;;;4.63;2.63;;;;;;;16.61;100.00;100692.03;6206647;28;20053;-87
2022/08/21 06:45:03;;;;;;;4.72;2.42;;;;;;;16.61;100.00;100690.22;6204847;28;20037;-87
2022/08/21 06:48:06;;;;;;;3.10;2.63;;;;;;;16.65;100.00;100688.94;6208193;28;20110;-87
2022/08/21 06:51:09;;;;;;;5.72;2.75;;;;;;;16.70;100.00;100691.91;6208224;28;20053;-86
2022/08/21 06:54:10;;;;;;;3.88;2.40;;;;;;;16.74;100.00;100693.25;6200603;28;20120;-87
2022/08/21 06:57:12;;;;;;;3.80;2.78;;;;;;;16.78;100.00;100689.34;6204462;28;20503;-87
2022/08/21 07:00:14;;;;;;;6.35;2.92;;;;;;;16.83;100.00;100688.88;6196696;28;20569;-87
2022/08/21 07:03:26;;;;;;;6.72;3.20;;;;;;;16.91;100.00;100688.91;6204465;28;20041;-87
2022/08/21 07:06:28;;;;;;;5.75;3.10;;;;;;;17.01;100.00;100689.56;6216844;28;20077;-87
2022/08/21 07:09:34;;;;;;;6.60;3.00;;;;;;;17.07;100.00;100680.28;6216827;28;20077;-87
2022/08/21 07:12:36;;;;;;;3.20;2.83;;;;;;;17.28;100.00;100686.88;6194533;28;20044;-87
2022/08/21 07:15:39;;;;;;;5.43;3.38;;;;;;;17.34;100.00;100679.22;6193341;28;20394;-87
2022/08/21 07:18:41;;;;;;;3.95;2.60;;;;;;;17.48;100.00;100682.16;6193814;28;20045;-87
2022/08/21 07:21:43;;;;;;;3.65;2.50;;;;;;;17.55;100.00;100670.06;6194825;28;20053;-87
2022/08/21 07:24:45;;;;;;;5.85;3.03;;;;;;;17.64;100.00;100671.72;6207728;28;20103;-87
2022/08/21 07:27:47;;;;;;;4.20;2.50;;;;;;;17.70;100.00;100673.66;6196333;28;20132;-87
2022/08/21 07:30:55;;;;;;;8.00;2.80;;;;;;;17.84;100.00;100673.03;6195410;28;20038;-87
2022/08/21 07:33:57;;;;;;;4.38;2.60;;;;;;;18.01;100.00;100675.63;6215329;28;20043;-88
2022/08/21 07:36:59;;;;;;;9.15;2.35;;;;;;;18.15;93.45;100672.31;6220632;28;20046;-88
2022/08/21 07:40:07;;;;;;;6.53;2.30;;;;;;;18.26;92.48;100677.22;6198877;28;20041;-88
2022/08/21 07:43:09;;;;;;;4.55;2.20;;;;;;;18.43;89.53;100662.28;6193068;28;20049;-87
2022/08/21 07:46:12;;;;;;;4.82;2.17;;;;;;;18.48;89.30;100667.81;6212400;28;20705;-87
2022/08/21 07:49:14;;;;;;;2.55;1.65;;;;;;;18.55;87.12;100657.47;6199549;28;20160;-88
2022/08/21 07:52:16;;;;;;;3.78;2.20;;;;;;;18.64;83.94;100658.25;6204403;28;20400;-87
2022/08/21 07:55:19;;;;;;;4.10;2.20;;;;;;;18.71;83.84;100657.41;6207663;28;20415;-89
2022/08/21 07:58:21;;;;;;;6.35;1.98;;;;;;;18.81;83.81;100661.66;6194869;28;20582;-88
2022/08/21 08:01:23;;;;;;;6.10;2.10;;;;;;;18.93;83.03;100655.84;6199048;28;20038;-88
2022/08/21 08:04:25;;;;;;;9.20;1.98;;;;;;;19.01;82.05;100657.59;6195629;28;20075;-88
2022/08/21 08:07:27;;;;;;;4.25;1.90;;;;;;;19.10;80.14;100655.72;6200590;28;20056;-88
2022/08/21 08:10:29;;;;;;;5.43;2.08;;;;;;;19.14;81.38;100652.59;6201391;28;20044;-88
2022/08/21 08:13:31;;;;;;;6.57;2.13;;;;;;;19.14;82.09;100660.47;6206197;28;20245;-88
2022/08/21 08:16:33;;;;;;;6.75;2.50;;;;;;;19.25;79.07;100653.19;6189063;28;20441;-88
2022/08/21 08:19:35;;;;;;;5.03;1.83;;;;;;;19.25;79.15;100656.59;6203621;28;20412;-89
2022/08/21 08:22:38;;;;;;;4.63;2.00;;;;;;;19.29;79.10;100660.53;6195929;28;20125;-89
2022/08/21 08:25:41;;;;;;;4.60;1.80;;;;;;;19.32;79.82;100647.03;6215952;28;20042;-88
2022/08/21 08:28:43;;;;;;;6.75;2.50;;;;;;;19.50;79.72;100656.44;6197739;28;20053;-90
2022/08/21 08:31:44;;;;;;;5.43;1.95;;;;;;;19.56;75.37;100650.50;6200050;28;20042;-89
2022/08/21 08:34:51;;;;;;;7.03;2.72;;;;;;;19.59;76.21;100644.88;6205980;28;20459;-89
2022/08/21 08:37:52;;;;;;;9.90;1.88;;;;;;;19.72;74.04;100652.19;6207352;28;20043;-89
2022/08/21 08:41:15;;;;;;;5.20;1.83;;;;;;;19.75;74.28;100644.78;6199545;28;20042;-89
2022/08/21 08:44:18;;;;;;;3.90;1.80;;;;;;;19.73;72.18;100648.56;6195160;28;20037;-88
2022/08/21 08:47:21;;;;;;;4.85;1.70;;;;;;;19.86;72.14;100643.50;6204807;28;20557;-87
2022/08/21 08:50:51;;;;;;;7.28;2.15;;;;;;;19.96;73.26;100644.06;6197695;28;20062;-88
2022/08/21 08:54:07;;;;;;;;;;;;;;;19.99;74.30;100651.59;6205542;28;20038;-88
2022/08/21 08:57:23;;;;;;;4.80;2.03;;;;;;;20.07;72.59;100642.00;6219616;28;20333;-87
2022/08/21 09:00:25;;;;;;;4.53;1.83;;;;;;;20.06;73.04;100630.66;6201069;28;20090;-87
2022/08/21 09:03:28;;;;;;;8.02;2.08;;;;;;;20.14;72.29;100637.66;6203466;28;20069;-88
2022/08/21 09:06:48;;;;;;;2.85;1.70;;;;;;;20.27;72.02;100632.56;6221847;28;20571;-87
2022/08/21 09:10:09;;;;;;;5.38;2.25;;;;;;;20.44;72.02;100636.63;6213767;28;20041;-88
2022/08/21 09:13:29;;;;;;;5.63;1.88;;;;;;;20.52;72.19;100632.25;6231711;28;20540;-88
2022/08/21 09:17:09;;;;;;;3.67;1.92;;;;;;;20.55;70.50;100634.59;6203278;28;20328;-87
2022/08/21 09:20:23;;;;;;;7.68;2.30;;;;;;;20.68;70.37;100621.56;6201467;28;20046;-88
2022/08/21 09:23:42;;;;;;;5.47;1.95;;;;;;;20.75;69.93;100630.34;6196769;28;20165;-88
2022/08/21 09:27:04;;;;;;;6.95;2.28;;;;;;;20.77;70.68;100622.25;6200182;28;20404;-88
2022/08/21 09:30:07;;;;;;;7.85;2.22;;;;;;;20.94;69.13;100634.19;6200632;28;20492;-88
2022/08/21 09:33:12;;;;;;;6.75;2.00;;;;;;;20.99;69.35;100617.84;6216238;28;20039;-87
2022/08/21 09:36:25;;;;;;;6.85;2.10;;;;;;;21.11;68.58;100618.97;6215498;28;20496;-87
2022/08/21 09:39:31;;;;;;;6.18;1.92;;;;;;;21.07;67.89;100628.28;6220997;28;20042;-88
2022/08/21 09:42:40;;;;;;;3.72;1.58;;;;;;;21.13;68.78;100621.44;6196676;28;20046;-88
2022/08/21 09:45:44;;;;;;;5.97;2.17;;;;;;;21.28;67.46;100630.06;6203821;28;20176;-88
2022/08/21 09:48:50;;;;;;;6.50;1.95;;;;;;;21.41;67.07;100619.69;6203735;28;20153;-88
2022/08/21 09:51:54;;;;;;;5.75;2.25;;;;;;;21.57;65.24;100629.16;6201727;28;20148;-88
2022/08/21 09:54:57;;;;;;;5.38;2.28;;;;;;;21.60;64.01;100630.59;6201406;28;20118;-89
2022/08/21 09:57:59;;;;;;;4.32;1.90;;;;;;;21.48;64.30;100625.81;6212978;28;20046;-88
2022/08/21 10:01:04;;;;;;;3.58;1.95;;;;;;;21.43;63.49;100611.59;6202334;28;20034;-88
2022/08/21 10:04:10;;;;;;;4.38;1.85;;;;;;;21.56;62.87;100619.59;6211136;28;20045;-88
2022/08/21 10:07:14;;;;;;;3.30;1.50;;;;;;;21.76;60.53;100618.94;6203135;28;20197;-88
2022/08/21 10:10:27;;;;;;;8.65;1.67;;;;;;;21.85;61.02;100618.59;6211793;28;20165;-89
2022/08/21 10:13:51;;;;;;;2.13;1.40;;;;;;;21.91;59.03;100609.94;6205067;28;20340;-88
2022/08/21 10:17:12;;;;;;;3.28;1.73;;;;;;;22.02;59.51;100615.66;6204764;28;20038;-89
2022/08/21 10:20:39;;;;;;;3.15;1.50;;;;;;;22.16;57.75;100606.81;6191489;28;20401;-89
2022/08/21 10:23:53;;;;;;;3.22;1.70;;;;;;;22.19;54.84;100610.88;6201769;28;20504;-89
2022/08/21 10:27:10;;;;;;;4.15;1.33;;;;;;;22.17;55.31;100610.25;6196561;28;20531;-90
2022/08/21 10:30:24;;;;;;;5.10;1.63;;;;;;;22.14;52.49;100607.00;6200589;28;20148;-89
2022/08/21 10:33:28;;;;;;;5.78;1.77;;;;;;;22.18;53.97;100606.59;6198333;28;20116;-90
2022/08/21 10:36:56;;;;;;;3.20;1.40;;;;;;;22.20;53.41;100602.00;6197843;28;20578;-90
2022/08/21 10:40:24;;;;;;;4.05;1.60;;;;;;;22.29;53.53;100599.00;6195685;28;20073;-90
2022/08/21 10:44:01;;;;;;;4.68;1.73;;;;;;;22.60;53.03;100595.03;6198055;28;20155;-90
2022/08/21 10:47:32;;;;;;;4.15;1.73;;;;;;;22.82;52.43;100598.34;6197389;28;20051;-90
2022/08/21 10:51:16;;;;;;;4.80;1.67;;;;;;;23.04;51.93;100585.81;6191907;28;20057;-89
2022/08/21 10:54:37;;;;;;;2.15;1.58;;;;;;;23.21;52.40;100578.31;6157850;28;20058;-89
2022/08/21 10:58:00;;;;;;;3.05;1.63;;;;;;;23.33;54.47;100578.50;6139303;28;20463;-89
2022/08/21 11:01:24;;;;;;;4.68;1.80;;;;;;;23.59;51.17;100578.50;6156280;28;20229;-90
2022/08/21 11:04:36;;;;;;;4.60;1.70;;;;;;;23.79;52.08;100580.31;6157561;28;20103;-91
2022/08/21 11:08:00;;;;;;;6.13;1.77;;;;;;;23.75;51.15;100579.09;6139908;28;20081;-89
2022/08/21 11:11:11;;;;;;;2.67;1.30;;;;;;;23.80;49.51;100587.22;6158338;28;20765;-89
2022/08/21 11:14:21;;;;;;;4.40;1.67;;;;;;;23.86;49.39;100592.50;6141967;28;20047;-89
2022/08/21 11:17:34;;;;;;;5.57;1.45;;;;;;;23.91;49.82;100591.09;6150398;28;20063;-89
2022/08/21 11:20:43;;;;;;;5.68;2.03;;;;;;;23.98;49.78;100586.59;6141936;28;20529;-89
2022/08/21 11:23:52;;;;;;;6.40;2.30;;;;;;;23.80;50.78;100587.22;6162983;28;20085;-89
2022/08/21 11:27:17;;;;;;;4.03;1.33;;;;;;;23.47;51.50;100589.88;6208817;28;20039;-89
2022/08/21 11:30:19;;;;;;;5.53;1.70;;;;;;;23.40;51.04;100588.09;6205479;28;20159;-89
2022/08/21 11:33:52;;;;;;;5.18;1.70;;;;;;;23.60;51.79;100590.69;6215245;28;20205;-89
2022/08/21 11:37:31;;;;;;;3.95;1.80;;;;;;;23.71;51.43;100581.31;6200073;28;20038;-89
2022/08/21 11:40:58;;;;;;;4.25;1.50;;;;;;;23.67;50.56;100582.75;6202347;28;20412;-89
2022/08/21 11:44:25;;;;;;;5.15;1.75;;;;;;;23.67;49.77;100581.94;6208315;28;20498;-90
2022/08/21 11:47:53;;;;;;;3.63;1.50;;;;;;;23.84;49.47;100577.88;6199879;28;20393;-89
2022/08/21 11:50:57;;;;;;;4.68;1.45;;;;;;;24.00;48.46;100573.94;6206876;28;20049;-89
2022/08/21 11:54:18;;;;;;;1.95;1.48;;;;;;;23.74;48.42;100580.94;6192299;28;20084;-89
2022/08/21 11:57:46;;;;;;;3.75;1.45;;;;;;;23.81;48.84;100578.28;6213182;28;20057;-89
2022/08/21 12:00:53;;;;;;;4.88;1.35;;;;;;;24.37;47.92;100577.69;6198789;28;20046;-89
2022/08/21 12:04:29;;;;;;;7.78;1.80;;;;;;;24.87;46.98;100571.75;6196273;28;20045;-89
2022/08/21 12:07:44;;;;;;;3.20;1.23;;;;;;;25.13;46.44;100583.97;6199727;28;20491;-89
2022/08/21 12:10:58;;;;;;;5.45;1.77;;;;;;;25.16;44.90;100572.91;6200767;28;20128;-89
2022/08/21 12:14:12;;;;;;;3.13;1.83;;;;;;;24.84;46.39;100570.28;6215350;28;20452;-89
2022/08/21 12:17:26;;;;;;;6.60;1.63;;;;;;;24.39;47.25;100572.97;6202506;28;20080;-89
2022/08/21 12:20:56;;;;;;;5.82;1.50;;;;;;;24.75;47.00;100576.09;6196887;28;20227;-90
2022/08/21 12:24:40;;;;;;;3.92;1.45;;;;;;;25.26;45.46;100567.97;6193975;28;20046;-91
2022/08/21 12:28:01;;;;;;;2.72;1.40;;;;;;;25.29;45.37;100572.03;6120573;28;20131;-90
2022/08/21 12:31:03;;;;;;;3.33;1.45;;;;;;;25.68;45.30;100573.50;6119687;28;20777;-89
2022/08/21 12:34:10;;;;;;;3.08;1.42;;;;;;;25.85;44.21;100571.13;6105487;28;20056;-90
2022/08/21 12:37:40;;;;;;;4.88;1.35;;;;;;;26.04;45.13;100576.41;6119801;28;20168;-90
2022/08/21 12:40:57;;;;;;;6.38;1.80;;;;;;;26.10;44.08;100564.91;6124381;28;20047;-90
2022/08/21 12:44:08;;;;;;;3.45;1.60;;;;;;;26.26;44.51;100561.66;6123276;28;20075;-90
2022/08/21 12:47:33;;;;;;;3.33;1.52;;;;;;;26.57;44.32;100555.31;6109710;28;20449;-90
2022/08/21 12:50:47;;;;;;;4.80;1.83;;;;;;;27.11;42.68;100550.00;6123395;28;20060;-90
2022/08/21 12:53:56;;;;;;;3.78;1.60;;;;;;;27.43;41.71;100550.50;6116729;28;20047;-90
2022/08/21 12:57:01;;;;;;;4.60;1.52;;;;;;;27.68;40.81;100549.44;6121804;28;20051;-91
2022/08/21 13:00:14;;;;;;;3.53;1.40;;;;;;;28.06;40.47;100561.41;6109689;28;20074;-91
2022/08/21 13:03:16;;;;;;;2.30;1.23;;;;;;;28.38;39.11;100548.44;6123685;28;20062;-90
2022/08/21 13:06:21;;;;;;;4.07;1.30;;;;;;;28.69;39.84;100554.31;6204600;28;20034;-90
2022/08/21 13:09:29;;;;;;;3.08;1.25;;;;;;;28.44;40.73;100552.00;6198063;28;20057;-90
2022/08/21 13:12:33;;;;;;;3.85;1.65;;;;;;;28.41;38.87;100550.63;6192121;28;20041;-90
2022/08/21 13:15:38;;;;;;;2.15;1.27;;;;;;;28.51;38.41;100542.84;6196024;28;20042;-91
2022/08/21 13:19:05;;;;;;;3.85;1.17;;;;;;;28.69;41.69;100543.66;6207084;28;20738;-90
2022/08/21 13:22:14;;;;;;;4.40;1.63;;;;;;;29.15;39.42;100534.56;6200715;28;20117;-90
2022/08/21 13:25:37;;;;;;;3.10;1.45;;;;;;;29.53;38.50;100543.63;6213532;28;20513;-90
2022/08/21 13:28:39;;;;;;;3.75;1.50;;;;;;;29.42;36.88;100547.22;6216269;28;20053;-90
2022/08/21 13:31:54;;;;;;;3.55;1.55;;;;;;;28.98;39.86;100531.09;6209544;28;20115;-90
2022/08/21 13:34:57;;;;;;;6.60;1.50;;;;;;;28.41;39.40;100542.63;6202145;28;20057;-91
2022/08/21 13:38:00;;;;;;;2.58;1.45;;;;;;;27.75;40.11;100544.81;6197455;28;20039;-90
2022/08/21 13:41:27;;;;;;;3.05;1.60;;;;;;;27.30;39.73;100542.75;6195371;28;20496;-91
2022/08/21 13:44:39;;;;;;;6.05;1.80;;;;;;;26.69;41.86;100541.28;6136261;29;20564;-90
2022/08/21 13:47:43;;;;;;;2.58;1.50;;;;;;;26.39;42.65;100542.09;6137041;29;20039;-90
2022/08/21 13:50:45;;;;;;;2.85;1.40;;;;;;;26.27;41.88;100538.56;6133484;29;20709;-89
2022/08/21 13:53:56;;;;;;;4.38;1.77;;;;;;;26.42;41.55;100534.47;6120431;29;20074;-89
2022/08/21 13:56:57;;;;;;;2.80;1.50;;;;;;;26.84;41.59;100531.03;6135320;29;20047;-90
2022/08/21 14:00:11;;;;;;;2.80;1.55;;;;;;;27.44;40.12;100540.69;6135973;29;20098;-91
2022/08/21 14:03:48;;;;;;;2.53;1.80;;;;;;;27.75;41.16;100541.31;6121008;29;20051;-91
2022/08/21 14:06:52;;;;;;;3.22;1.60;;;;;;;28.18;39.66;100545.41;6132918;28;20043;-91
2022/08/21 14:09:54;;;;;;;1.83;1.25;;;;;;;28.38;39.29;100537.00;6119625;29;20055;-91
2022/08/21 14:13:05;;;;;;;3.60;1.70;;;;;;;28.64;38.02;100539.06;6135628;29;20051;-91
2022/08/21 14:16:41;;;;;;;2.67;1.42;;;;;;;28.56;37.16;100532.28;6133399;29;20043;-91
2022/08/21 14:19:45;;;;;;;3.50;1.70;;;;;;;28.65;37.38;100530.03;6136173;29;20135;-90
2022/08/21 14:22:48;;;;;;;2.47;1.50;;;;;;;28.83;37.68;100544.97;6207482;28;20062;-90
2022/08/21 14:25:49;;;;;;;2.28;1.58;;;;;;;28.87;36.30;100535.47;6195728;28;20033;-90
2022/08/21 14:28:52;;;;;;;3.08;1.50;;;;;;;28.92;36.37;100535.53;6198936;28;20038;-90